createdAt,value
2023-05-09T00:00:33.567Z,100325.81
2023-05-09T00:03:35.067Z,100331.75
2023-05-09T00:06:36.593Z,100327.59
2023-05-09T00:09:38.042Z,100327.97
2023-05-09T00:12:39.609Z,100326.81
2023-05-09T00:15:41.151Z,100334.53
2023-05-09T00:18:42.812Z,100328.69
2023-05-09T00:21:44.772Z,100330.59
2023-05-09T00:24:46.278Z,100326.13
2023-05-09T00:27:47.779Z,100324.91
2023-05-09T00:30:49.276Z,100325.22
2023-05-09T00:33:51.005Z,100320.88
2023-05-09T00:36:52.504Z,100315.50
2023-05-09T00:39:53.990Z,100308.81
2023-05-09T00:42:55.480Z,100303.13
2023-05-09T00:45:57.009Z,100300.41
2023-05-09T00:48:58.503Z,100298.34
2023-05-09T00:52:00.273Z,100308.88
2023-05-09T00:55:01.781Z,100301.97
2023-05-09T00:58:03.565Z,100299.69
2023-05-09T01:01:05.085Z,100299.19
2023-05-09T01:04:06.781Z,100306.25
2023-05-09T01:07:08.246Z,100299.81
2023-05-09T01:10:39.105Z,100300.13
2023-05-09T01:13:52.588Z,100292.28
2023-05-09T01:17:00.335Z,100295.88
2023-05-09T01:20:03.390Z,100295.44
2023-05-09T01:23:12.280Z,100298.47
2023-05-09T01:26:14.851Z,100295.00
2023-05-09T01:29:35.078Z,100292.31
2023-05-09T01:32:36.571Z,100296.91
2023-05-09T01:35:38.072Z,100294.84
2023-05-09T01:38:39.566Z,100285.91
2023-05-09T01:41:41.169Z,100283.72
2023-05-09T01:44:42.993Z,100282.13
2023-05-09T01:47:44.510Z,100272.34
2023-05-09T01:50:45.994Z,100279.09
2023-05-09T01:53:48.188Z,100279.44
2023-05-09T01:56:49.685Z,100275.63
2023-05-09T01:59:51.255Z,100275.84
2023-05-09T02:02:53.120Z,100283.19
2023-05-09T02:05:54.894Z,100277.25
2023-05-09T02:08:56.386Z,100281.19
2023-05-09T02:11:57.820Z,100276.09
2023-05-09T02:14:59.300Z,100266.81
2023-05-09T02:18:00.854Z,100271.72
2023-05-09T02:21:02.539Z,100272.16
2023-05-09T02:24:04.209Z,100278.47
2023-05-09T02:27:05.749Z,100274.69
2023-05-09T02:30:08.902Z,100276.09
2023-05-09T02:33:10.605Z,100283.72
2023-05-09T02:36:12.437Z,100275.97
2023-05-09T02:39:14.304Z,100282.44
2023-05-09T02:42:19.541Z,100281.00
2023-05-09T02:45:21.052Z,100281.44
2023-05-09T02:48:22.535Z,100278.16
2023-05-09T02:51:24.048Z,100283.50
2023-05-09T02:54:25.569Z,100286.56
2023-05-09T02:57:27.077Z,100283.19
2023-05-09T03:00:28.574Z,100268.97
2023-05-09T03:03:30.376Z,100280.63
2023-05-09T03:06:32.013Z,100279.22
2023-05-09T03:09:33.623Z,100260.44
2023-05-09T03:12:35.755Z,100284.91
2023-05-09T03:15:37.238Z,100287.22
2023-05-09T03:18:39.748Z,100287.97
2023-05-09T03:21:41.679Z,100291.00
2023-05-09T03:24:43.971Z,100283.59
2023-05-09T03:27:45.474Z,100276.16
2023-05-09T03:30:49.910Z,100278.88
2023-05-09T03:33:53.800Z,100279.97
2023-05-09T03:36:55.965Z,100280.41
2023-05-09T03:39:58.017Z,100273.63
2023-05-09T03:43:00.402Z,100269.91
2023-05-09T03:46:01.877Z,100266.66
2023-05-09T03:49:03.748Z,100273.44
2023-05-09T03:52:06.375Z,100271.66
2023-05-09T03:55:08.795Z,100270.22
2023-05-09T03:58:11.761Z,100268.06
2023-05-09T04:01:15.857Z,100267.38
2023-05-09T04:04:18.083Z,100273.13
2023-05-09T04:07:19.854Z,100276.97
2023-05-09T04:10:21.543Z,100268.00
2023-05-09T04:13:23.627Z,100278.25
2023-05-09T04:16:25.359Z,100275.03
2023-05-09T04:19:26.941Z,100273.72
2023-05-09T04:22:28.852Z,100272.41
2023-05-09T04:25:31.033Z,100269.22
2023-05-09T04:28:32.796Z,100269.72
2023-05-09T04:31:34.524Z,100270.66
2023-05-09T04:34:37.133Z,100271.94
2023-05-09T04:37:46.637Z,100267.19
2023-05-09T04:40:48.273Z,100272.44
2023-05-09T04:43:49.804Z,100266.59
2023-05-09T04:46:51.618Z,100270.84
2023-05-09T04:49:53.179Z,100264.59
2023-05-09T04:52:54.691Z,100260.53
2023-05-09T04:55:56.237Z,100256.13
2023-05-09T04:58:57.990Z,100256.13
2023-05-09T05:01:59.617Z,100261.88
2023-05-09T05:05:17.887Z,100252.56
2023-05-09T05:08:19.534Z,100250.78
2023-05-09T05:11:23.078Z,100242.63
2023-05-09T05:14:24.729Z,100251.97
2023-05-09T05:17:26.532Z,100249.44
2023-05-09T05:20:28.242Z,100246.97
2023-05-09T05:23:30.228Z,100245.16
2023-05-09T05:26:31.742Z,100246.09
2023-05-09T05:29:33.551Z,100230.75
2023-05-09T05:32:35.486Z,100224.38
2023-05-09T05:35:37.192Z,100233.38
2023-05-09T05:38:38.932Z,100221.91
2023-05-09T05:41:40.647Z,100223.69
2023-05-09T05:44:42.808Z,100224.13
2023-05-09T05:47:44.932Z,100216.56
2023-05-09T05:50:47.416Z,100225.91
2023-05-09T05:53:51.779Z,100219.34
2023-05-09T05:56:53.890Z,100229.38
2023-05-09T05:59:55.584Z,100221.88
2023-05-09T06:02:57.374Z,100218.31
2023-05-09T06:06:16.215Z,100226.97
2023-05-09T06:09:17.732Z,100219.97
2023-05-09T06:12:19.229Z,100224.66
2023-05-09T06:15:20.769Z,100227.06
2023-05-09T06:18:24.563Z,100232.53
2023-05-09T06:21:26.062Z,100237.66
2023-05-09T06:24:35.591Z,100232.09
2023-05-09T06:27:38.430Z,100222.94
2023-05-09T06:30:40.119Z,100219.03
2023-05-09T06:33:41.592Z,100228.31
2023-05-09T06:36:43.113Z,100224.81
2023-05-09T06:39:44.607Z,100206.88
2023-05-09T06:42:46.198Z,100217.38
2023-05-09T06:45:47.710Z,100203.88
2023-05-09T06:48:49.162Z,100187.03
2023-05-09T06:51:50.662Z,100195.31
2023-05-09T06:54:52.211Z,100196.25
2023-05-09T06:57:53.679Z,100181.94
2023-05-09T07:00:55.176Z,100188.66
2023-05-09T07:03:56.645Z,100185.31
2023-05-09T07:06:58.125Z,100189.59
2023-05-09T07:10:10.515Z,100174.91
2023-05-09T07:13:13.680Z,100171.91
2023-05-09T07:16:15.196Z,100170.44
2023-05-09T07:19:16.775Z,100173.88
2023-05-09T07:22:18.340Z,100173.56
2023-05-09T07:25:19.897Z,100181.94
2023-05-09T07:28:21.401Z,100183.13
2023-05-09T07:31:22.961Z,100162.44
2023-05-09T07:34:24.475Z,100158.75
2023-05-09T07:37:25.976Z,100154.19
2023-05-09T07:40:27.442Z,100155.69
2023-05-09T07:43:28.904Z,100153.50
2023-05-09T07:46:30.453Z,100149.78
2023-05-09T07:49:32.265Z,100145.28
2023-05-09T07:52:33.779Z,100144.56
2023-05-09T07:55:35.314Z,100149.59
2023-05-09T07:58:36.821Z,100157.94
2023-05-09T08:01:38.312Z,100150.81
2023-05-09T08:04:39.846Z,100138.03
2023-05-09T08:07:41.318Z,100125.91
2023-05-09T08:10:42.820Z,100131.22
2023-05-09T08:13:44.308Z,100134.69
2023-05-09T08:16:45.798Z,100125.28
2023-05-09T08:19:47.329Z,100124.88
2023-05-09T08:22:48.790Z,100137.38
2023-05-09T08:25:56.426Z,100116.31
2023-05-09T08:28:57.881Z,100134.84
2023-05-09T08:31:59.472Z,100116.72
2023-05-09T08:35:00.970Z,100103.97
2023-05-09T08:38:02.444Z,100103.22
2023-05-09T08:41:03.916Z,100112.69
2023-05-09T08:44:05.374Z,100118.78
2023-05-09T08:47:06.856Z,100112.34
2023-05-09T08:50:09.005Z,100109.66
2023-05-09T08:53:13.701Z,100104.75
2023-05-09T08:56:15.188Z,100110.47
2023-05-09T08:59:16.894Z,100087.44
2023-05-09T09:02:18.387Z,100091.94
2023-05-09T09:05:40.178Z,100082.91
2023-05-09T09:08:41.825Z,100087.81
2023-05-09T09:11:43.333Z,100083.72
2023-05-09T09:14:46.592Z,100076.13
2023-05-09T09:17:48.552Z,100081.81
2023-05-09T09:20:51.265Z,100076.13
2023-05-09T09:23:52.776Z,100057.19
2023-05-09T09:26:54.483Z,100070.44
2023-05-09T09:29:55.976Z,100062.47
2023-05-09T09:33:00.658Z,100065.13
2023-05-09T09:36:02.248Z,100080.63
2023-05-09T09:39:04.116Z,100073.03
2023-05-09T09:42:11.863Z,100066.59
2023-05-09T09:45:14.577Z,100050.31
2023-05-09T09:48:16.096Z,100055.91
2023-05-09T09:51:17.574Z,100038.50
2023-05-09T09:54:19.090Z,100046.84
2023-05-09T09:57:38.976Z,100040.00
2023-05-09T10:00:40.516Z,100039.25
2023-05-09T10:03:46.036Z,100034.72
2023-05-09T10:06:54.140Z,100041.09
2023-05-09T10:09:55.626Z,100028.59
2023-05-09T10:12:58.609Z,100030.78
2023-05-09T10:16:00.496Z,100042.06
2023-05-09T10:19:02.150Z,100026.13
2023-05-09T10:22:04.436Z,100023.78
2023-05-09T10:25:06.539Z,100026.06
2023-05-09T10:28:10.657Z,100022.72
2023-05-09T10:31:12.525Z,100013.13
2023-05-09T10:34:13.993Z,100027.06
2023-05-09T10:37:15.651Z,100015.22
2023-05-09T10:40:17.098Z,100006.09
2023-05-09T10:43:18.551Z,100009.47
2023-05-09T10:46:20.020Z,99995.03
2023-05-09T10:49:21.609Z,99979.38
2023-05-09T10:52:23.060Z,99996.78
2023-05-09T10:55:24.500Z,99984.25
2023-05-09T10:58:26.604Z,99977.00
2023-05-09T11:01:28.779Z,99970.59
2023-05-09T11:04:30.441Z,99971.25
2023-05-09T11:07:31.893Z,99969.69
2023-05-09T11:10:41.712Z,99967.78
2023-05-09T11:13:45.629Z,99952.00
2023-05-09T11:17:02.800Z,99960.72
2023-05-09T11:20:04.915Z,99944.72
2023-05-09T11:23:06.374Z,99940.41
2023-05-09T11:26:08.275Z,99940.63
2023-05-09T11:29:09.728Z,99934.88
2023-05-09T11:32:13.243Z,99912.63
2023-05-09T11:35:15.873Z,99929.16
2023-05-09T11:38:20.517Z,99904.84
2023-05-09T11:41:21.950Z,99920.16
2023-05-09T11:44:23.394Z,99907.91
2023-05-09T11:47:25.327Z,99899.09
2023-05-09T11:50:27.027Z,99908.34
2023-05-09T11:53:28.472Z,99902.59
2023-05-09T11:56:30.197Z,99889.75
2023-05-09T11:59:31.823Z,99888.47
2023-05-09T12:02:33.328Z,99880.59
2023-05-09T12:05:34.868Z,99878.16
2023-05-09T12:08:36.307Z,99887.59
2023-05-09T12:11:37.736Z,99872.03
2023-05-09T12:14:39.206Z,99856.13
2023-05-09T12:17:41.111Z,99859.47
2023-05-09T12:20:43.179Z,99851.50
2023-05-09T12:23:45.539Z,99858.50
2023-05-09T12:26:47.486Z,99862.06
2023-05-09T12:29:49.296Z,99853.59
2023-05-09T12:32:50.816Z,99839.44
2023-05-09T12:36:02.639Z,99840.50
2023-05-09T12:39:08.417Z,99830.75
2023-05-09T12:42:12.918Z,99818.09
2023-05-09T12:45:14.669Z,99815.16
2023-05-09T12:48:16.337Z,99815.22
2023-05-09T12:51:18.187Z,99808.47
2023-05-09T12:54:20.333Z,99806.72
2023-05-09T12:57:24.964Z,99808.13
2023-05-09T13:00:26.458Z,99777.56
2023-05-09T13:03:28.176Z,99781.63
2023-05-09T13:06:29.665Z,99780.38
2023-05-09T13:09:31.102Z,99773.84
2023-05-09T13:12:32.515Z,99761.69
2023-05-09T13:15:34.003Z,99751.00
2023-05-09T13:18:35.443Z,99752.03
2023-05-09T13:21:37.002Z,99750.66
2023-05-09T13:24:38.457Z,99742.81
2023-05-09T13:27:39.890Z,99749.56
2023-05-09T13:30:41.415Z,99732.00
2023-05-09T13:33:42.855Z,99732.25
2023-05-09T13:36:44.301Z,99736.41
2023-05-09T13:39:45.748Z,99733.44
2023-05-09T13:42:47.188Z,99714.28
2023-05-09T13:45:48.757Z,99721.25
2023-05-09T13:48:50.306Z,99718.44
2023-05-09T13:51:51.759Z,99711.09
2023-05-09T13:54:53.201Z,99711.63
2023-05-09T13:57:57.522Z,99717.09
2023-05-09T14:00:58.980Z,99723.72
2023-05-09T14:04:00.500Z,99709.66
2023-05-09T14:07:02.017Z,99698.59
2023-05-09T14:13:07.905Z,99687.81
2023-05-09T14:16:09.474Z,99687.00
2023-05-09T14:19:11.081Z,99677.38
2023-05-09T14:22:12.698Z,99654.78
2023-05-09T14:25:14.167Z,99669.22
2023-05-09T14:28:15.569Z,99659.25
2023-05-09T14:31:17.044Z,99666.63
2023-05-09T14:34:18.522Z,99661.44
2023-05-09T14:37:19.966Z,99669.50
2023-05-09T14:40:21.407Z,99650.59
2023-05-09T14:43:22.851Z,99641.91
2023-05-09T14:46:24.381Z,99617.38
2023-05-09T14:49:25.867Z,99630.47
2023-05-09T14:52:27.301Z,99618.00
2023-05-09T14:55:28.760Z,99629.03
2023-05-09T14:58:30.214Z,99618.78
2023-05-09T15:01:31.674Z,99606.47
2023-05-09T15:04:33.216Z,99610.97
2023-05-09T15:07:34.663Z,99604.19
2023-05-09T15:10:36.112Z,99576.28
2023-05-09T15:13:37.585Z,99589.97
2023-05-09T15:16:40.937Z,99586.34
2023-05-09T15:19:42.395Z,99576.47
2023-05-09T15:22:44.191Z,99585.03
2023-05-09T15:25:45.647Z,99582.66
2023-05-09T15:28:47.078Z,99559.69
2023-05-09T15:31:48.581Z,99551.91
2023-05-09T15:34:50.039Z,99558.19
2023-05-09T15:37:51.487Z,99547.44
2023-05-09T15:40:52.910Z,99548.38
2023-05-09T15:43:54.357Z,99561.97
2023-05-09T15:46:55.802Z,99547.50
2023-05-09T15:49:57.266Z,99553.34
2023-05-09T15:52:58.907Z,99554.31
2023-05-09T15:56:00.412Z,99534.75
2023-05-09T15:59:02.280Z,99546.78
2023-05-09T16:02:03.802Z,99534.38
2023-05-09T16:05:05.540Z,99548.44
2023-05-09T16:08:06.980Z,99554.38
2023-05-09T16:11:09.301Z,99529.66
2023-05-09T16:14:10.819Z,99523.88
2023-05-09T16:17:12.274Z,99522.75
2023-05-09T16:20:13.894Z,99514.09
2023-05-09T16:23:15.740Z,99521.34
2023-05-09T16:26:17.206Z,99515.41
2023-05-09T16:29:18.661Z,99525.19
2023-05-09T16:32:20.132Z,99528.06
2023-05-09T16:35:21.623Z,99505.81
2023-05-09T16:38:23.056Z,99521.16
2023-05-09T16:41:24.506Z,99481.84
2023-05-09T16:44:25.961Z,99478.28
2023-05-09T16:47:27.442Z,99496.34
2023-05-09T16:50:28.890Z,99498.03
2023-05-09T16:53:30.327Z,99490.44
2023-05-09T16:56:31.792Z,99483.41
2023-05-09T16:59:33.238Z,99488.41
2023-05-09T17:02:34.686Z,99473.13
2023-05-09T17:05:36.134Z,99489.84
2023-05-09T17:08:37.572Z,99487.66
2023-05-09T17:11:39.032Z,99481.53
2023-05-09T17:14:40.674Z,99478.56
2023-05-09T17:17:42.129Z,99478.56
2023-05-09T17:20:43.568Z,99490.56
2023-05-09T17:23:45.036Z,99486.56
2023-05-09T17:26:46.492Z,99473.94
2023-05-09T17:29:47.942Z,99481.78
2023-05-09T17:32:49.465Z,99491.06
2023-05-09T17:35:51.052Z,99492.69
2023-05-09T17:38:52.622Z,99485.94
2023-05-09T17:41:54.040Z,99484.72
2023-05-09T17:44:55.508Z,99489.09
2023-05-09T17:47:56.992Z,99488.13
2023-05-09T17:50:58.466Z,99485.72
2023-05-09T17:53:59.931Z,99479.66
2023-05-09T17:57:01.404Z,99486.50
2023-05-09T18:00:03.076Z,99489.56
2023-05-09T18:03:14.734Z,99486.31
2023-05-09T18:06:16.634Z,99502.66
2023-05-09T18:09:18.077Z,99503.44
2023-05-09T18:12:19.686Z,99502.81
2023-05-09T18:15:21.114Z,99512.50
2023-05-09T18:18:22.623Z,99508.19
2023-05-09T18:21:26.517Z,99508.09
2023-05-09T18:24:28.223Z,99513.69
2023-05-09T18:27:29.688Z,99515.50
2023-05-09T18:30:31.252Z,99518.56
2023-05-09T18:33:32.841Z,99525.41
2023-05-09T18:36:34.370Z,99528.56
2023-05-09T18:39:35.838Z,99534.69
2023-05-09T18:42:37.320Z,99540.34
2023-05-09T18:45:38.782Z,99544.38
2023-05-09T18:48:40.251Z,99552.56
2023-05-09T18:51:41.778Z,99553.56
2023-05-09T18:54:43.247Z,99559.34
2023-05-09T18:57:44.849Z,99568.53
2023-05-09T19:00:46.469Z,99568.91
2023-05-09T19:03:48.046Z,99567.66
2023-05-09T19:06:49.599Z,99578.97
2023-05-09T19:09:51.105Z,99586.13
2023-05-09T19:12:53.231Z,99584.44
2023-05-09T19:15:55.942Z,99588.09
2023-05-09T19:18:58.050Z,99587.22
2023-05-09T19:22:00.987Z,99592.09
2023-05-09T19:25:03.332Z,99583.59
2023-05-09T19:28:05.077Z,99595.91
2023-05-09T19:31:07.040Z,99593.13
2023-05-09T19:34:18.323Z,99598.28
2023-05-09T19:37:24.691Z,99595.00
2023-05-09T19:40:26.471Z,99598.53
2023-05-09T19:43:28.380Z,99597.91
2023-05-09T19:46:30.482Z,99587.84
2023-05-09T19:49:32.480Z,99602.81
2023-05-09T19:52:34.580Z,99590.09
2023-05-09T19:55:37.379Z,99594.03
2023-05-09T19:58:38.925Z,99589.97
2023-05-09T20:01:40.435Z,99590.06
2023-05-09T20:04:43.141Z,99589.44
2023-05-09T20:07:46.383Z,99583.88
2023-05-09T20:10:48.535Z,99586.28
2023-05-09T20:13:50.607Z,99573.13
2023-05-09T20:16:52.833Z,99576.22
2023-05-09T20:19:55.108Z,99574.44
2023-05-09T20:22:57.414Z,99576.81
2023-05-09T20:25:59.708Z,99577.63
2023-05-09T20:29:01.851Z,99579.56
2023-05-09T20:32:04.018Z,99574.69
2023-05-09T20:35:06.368Z,99564.53
2023-05-09T20:38:08.660Z,99574.44
2023-05-09T20:41:10.630Z,99561.66
2023-05-09T20:44:13.326Z,99564.75
2023-05-09T20:47:15.670Z,99558.78
2023-05-09T20:50:17.832Z,99558.06
2023-05-09T20:53:19.730Z,99566.84
2023-05-09T20:56:21.138Z,99546.81
2023-05-09T20:59:22.558Z,99546.16
2023-05-09T21:02:24.039Z,99545.88
2023-05-09T21:05:25.544Z,99536.50
2023-05-09T21:08:26.979Z,99530.06
2023-05-09T21:11:28.421Z,99527.09
2023-05-09T21:14:30.000Z,99537.38
2023-05-09T21:17:31.450Z,99523.44
2023-05-09T21:20:32.891Z,99526.53
2023-05-09T21:23:34.508Z,99523.53
2023-05-09T21:26:35.928Z,99527.34
2023-05-09T21:29:37.322Z,99521.72
2023-05-09T21:32:38.721Z,99523.25
2023-05-09T21:35:40.204Z,99509.38
2023-05-09T21:38:41.593Z,99516.94
2023-05-09T21:41:43.054Z,99511.25
2023-05-09T21:44:44.629Z,99516.63
2023-05-09T21:47:46.133Z,99513.94
2023-05-09T21:50:47.606Z,99528.34
2023-05-09T21:53:49.010Z,99522.69
2023-05-09T21:56:50.437Z,99528.38
2023-05-09T21:59:51.834Z,99530.69
2023-05-09T22:02:53.296Z,99522.44
2023-05-09T22:05:54.744Z,99519.84
2023-05-09T22:08:56.146Z,99533.44
2023-05-09T22:11:57.556Z,99526.31
2023-05-09T22:14:58.945Z,99523.28
2023-05-09T22:18:00.650Z,99523.31
2023-05-09T22:21:02.047Z,99524.84
2023-05-09T22:24:03.576Z,99517.31
2023-05-09T22:27:04.966Z,99513.91
2023-05-09T22:30:06.712Z,99511.28
2023-05-09T22:33:08.182Z,99511.28
2023-05-09T22:36:09.608Z,99515.81
2023-05-09T22:39:11.025Z,99508.28
2023-05-09T22:42:12.399Z,99514.72
2023-05-09T22:45:13.818Z,99515.09
2023-05-09T22:48:15.234Z,99512.84
2023-05-09T22:51:16.642Z,99509.47
2023-05-09T22:54:18.091Z,99520.38
2023-05-09T22:57:19.526Z,99510.19
2023-05-09T23:00:21.062Z,99505.66
2023-05-09T23:03:22.753Z,99498.88
2023-05-09T23:06:24.479Z,99509.84
2023-05-09T23:09:25.940Z,99513.63
2023-05-09T23:12:27.369Z,99515.16
2023-05-09T23:15:28.859Z,99514.38
2023-05-09T23:18:30.302Z,99514.03
2023-05-09T23:21:31.726Z,99512.88
2023-05-09T23:24:33.186Z,99509.13
2023-05-09T23:27:34.596Z,99509.13
2023-05-09T23:30:36.054Z,99504.97
2023-05-09T23:33:37.499Z,99512.50
2023-05-09T23:36:38.921Z,99501.56
2023-05-09T23:39:40.358Z,99499.66
2023-05-09T23:42:41.766Z,99498.91
2023-05-09T23:45:43.212Z,99497.78
2023-05-09T23:48:44.660Z,99497.41
2023-05-09T23:51:46.065Z,99492.50
2023-05-09T23:54:47.527Z,99492.13
2023-05-09T23:57:48.925Z,99484.97
